Time;durP1;ratioP1;P1;durP2;ratioP2;P2;SDS_P1;SDS_P2;PMS_P1;PMS_P2;Temp;Humidity;BMP_temperature;BMP_pressure;BME280_temperature;BME280_humidity;BME280_pressure;Samples;Min_cycle;Max_cycle;Signal;HPM_P1;HPM_P2
2022/07/08 00:02:11;;;;;;;8.43;4.60;;;17.90;99.90;;;;;;2585503;54;19941;31
2022/07/08 00:04:44;;;;;;;6.90;4.83;;;17.90;99.90;;;;;;2584275;54;20060;31
2022/07/08 00:07:26;;;;;;;6.40;5.13;;;17.80;99.90;;;;;;2602554;47;20947;31
2022/07/08 00:10:01;;;;;;;4.90;4.50;;;17.80;99.90;;;;;;2683254;39;22542;31
2022/07/08 00:12:37;;;;;;;7.13;5.53;;;17.80;99.90;;;;;;2597379;47;21311;31
2022/07/08 00:15:12;;;;;;;7.93;6.30;;;17.80;99.90;;;;;;2599829;47;20246;31
2022/07/08 00:17:49;;;;;;;7.50;6.75;;;17.80;99.90;;;;;;2584961;54;20821;31
2022/07/08 00:20:25;;;;;;;7.60;6.85;;;17.80;99.90;;;;;;2586146;54;21257;31
2022/07/08 00:23:00;;;;;;;7.15;6.45;;;17.70;99.90;;;;;;2585970;54;20066;31
2022/07/08 00:25:38;;;;;;;7.00;6.40;;;17.70;99.90;;;;;;2586030;54;20814;31
2022/07/08 00:28:12;;;;;;;8.35;7.55;;;17.80;99.90;;;;;;2584850;54;20026;31
2022/07/08 00:30:48;;;;;;;8.07;7.38;;;17.70;99.90;;;;;;2586180;54;20831;31
2022/07/08 00:33:28;;;;;;;8.50;7.70;;;17.70;99.90;;;;;;2586026;54;21024;31
2022/07/08 00:36:01;;;;;;;7.70;7.00;;;17.80;99.90;;;;;;2585922;54;20081;31
2022/07/08 00:38:36;;;;;;;8.95;8.07;;;17.70;99.90;;;;;;2604532;46;20941;31
2022/07/08 00:41:11;;;;;;;8.65;7.70;;;17.70;99.90;;;;;;2585861;54;20146;31
2022/07/08 00:43:48;;;;;;;9.05;8.18;;;17.70;99.90;;;;;;2585924;54;20052;31
2022/07/08 00:46:22;;;;;;;10.93;8.40;;;17.70;99.90;;;;;;2586186;54;20911;31
2022/07/08 00:49:01;;;;;;;8.13;7.32;;;17.70;99.90;;;;;;2602506;46;20052;31
2022/07/08 00:51:37;;;;;;;9.30;8.40;;;17.70;99.90;;;;;;2764611;31;20632;31
2022/07/08 00:54:14;;;;;;;8.82;8.10;;;17.60;99.90;;;;;;2584802;54;20810;31
2022/07/08 00:56:48;;;;;;;8.57;7.70;;;17.60;99.90;;;;;;2584896;54;20806;31
2022/07/08 00:59:22;;;;;;;9.25;8.35;;;17.60;99.90;;;;;;2585637;54;21513;31
2022/07/08 01:01:58;;;;;;;7.85;7.15;;;17.60;99.90;;;;;;2604316;46;20029;31
2022/07/08 01:04:37;;;;;;;6.80;6.20;;;17.60;99.90;;;;;;2586054;54;22442;31
2022/07/08 01:07:13;;;;;;;8.23;7.43;;;17.60;99.90;;;;;;2604297;46;21585;31
2022/07/08 01:09:49;;;;;;;9.02;8.18;;;17.50;99.90;;;;;;2585791;54;19989;31
2022/07/08 01:12:24;;;;;;;8.65;7.85;;;17.50;99.90;;;;;;2585846;54;20981;31
2022/07/08 01:15:01;;;;;;;8.15;7.35;;;17.50;99.90;;;;;;2585144;54;19994;31
2022/07/08 01:17:47;;;;;;;9.27;8.43;;;17.50;99.90;;;;;;2585646;54;20901;31
2022/07/08 01:20:24;;;;;;;9.50;8.60;;;17.50;99.90;;;;;;2586191;46;21976;31
2022/07/08 01:23:04;;;;;;;10.33;8.23;;;17.40;99.90;;;;;;2585060;54;20037;31
2022/07/08 01:25:39;;;;;;;10.40;8.80;;;17.40;99.90;;;;;;2585748;54;21296;31
2022/07/08 01:28:15;;;;;;;9.90;8.43;;;17.40;99.90;;;;;;2585566;54;19936;31
2022/07/08 01:30:50;;;;;;;9.93;9.00;;;17.40;99.90;;;;;;2586019;54;20882;31
2022/07/08 01:33:24;;;;;;;9.45;8.25;;;17.40;99.90;;;;;;2584870;54;20824;31
2022/07/08 01:35:59;;;;;;;11.60;9.25;;;17.30;99.90;;;;;;2585810;54;20062;31
2022/07/08 01:38:37;;;;;;;10.15;9.00;;;17.30;99.90;;;;;;2585611;54;20104;31
2022/07/08 01:41:12;;;;;;;10.70;9.70;;;17.30;99.90;;;;;;2584805;54;20877;31
2022/07/08 01:43:50;;;;;;;10.20;9.30;;;17.30;99.90;;;;;;2682811;39;21110;31
2022/07/08 01:46:28;;;;;;;9.85;8.95;;;17.30;99.90;;;;;;2585570;54;19938;31
2022/07/08 01:49:03;;;;;;;10.20;9.30;;;17.30;99.90;;;;;;2585841;54;22447;31
2022/07/08 01:51:45;;;;;;;9.45;8.55;;;17.20;99.90;;;;;;2604274;46;20903;31
2022/07/08 01:54:22;;;;;;;10.38;9.38;;;17.30;99.90;;;;;;2584938;54;20034;31
2022/07/08 01:57:13;;;;;;;10.25;9.35;;;17.30;99.90;;;;;;2584631;54;20993;31
2022/07/08 01:59:48;;;;;;;10.68;9.30;;;17.30;99.90;;;;;;2585763;54;19942;31
2022/07/08 02:02:25;;;;;;;9.97;9.03;;;17.20;99.90;;;;;;2585843;54;20883;31
2022/07/08 02:05:00;;;;;;;11.00;9.70;;;17.20;99.90;;;;;;2584856;54;20022;31
2022/07/08 02:07:38;;;;;;;11.23;10.27;;;17.20;99.90;;;;;;2584822;54;20298;31
2022/07/08 02:10:19;;;;;;;10.30;9.27;;;17.10;99.90;;;;;;2604278;46;20322;31
2022/07/08 02:12:51;;;;;;;11.05;10.05;;;17.20;99.90;;;;;;2585560;54;19993;31
2022/07/08 02:15:27;;;;;;;10.93;9.98;;;17.20;99.90;;;;;;2585568;54;20942;31
2022/07/08 02:18:06;;;;;;;10.90;10.00;;;17.20;99.90;;;;;;2585565;54;20868;31
2022/07/08 02:20:41;;;;;;;10.80;9.80;;;17.20;99.90;;;;;;2585505;54;21035;31
2022/07/08 02:23:15;;;;;;;11.40;10.30;;;17.10;99.90;;;;;;2585706;54;20829;31
2022/07/08 02:25:52;;;;;;;11.30;10.30;;;17.20;99.90;;;;;;2585773;54;20089;31
2022/07/08 02:28:27;;;;;;;10.05;9.15;;;17.10;99.90;;;;;;2585590;54;20108;31
2022/07/08 02:31:02;;;;;;;10.73;9.73;;;17.10;99.90;;;;;;2585445;54;21099;31
2022/07/08 02:33:37;;;;;;;11.95;10.75;;;17.20;99.90;;;;;;2585864;54;20042;31
2022/07/08 02:36:12;;;;;;;13.35;12.00;;;17.20;99.90;;;;;;2603867;46;20061;31
2022/07/08 02:38:46;;;;;;;13.45;12.15;;;17.10;99.90;;;;;;2585460;54;20484;31
2022/07/08 02:41:24;;;;;;;13.35;12.25;;;17.20;99.90;;;;;;2585514;54;20143;31
2022/07/08 02:44:00;;;;;;;12.55;11.25;;;17.20;99.90;;;;;;2585816;54;20030;31
2022/07/08 02:46:35;;;;;;;;;;;17.20;99.90;;;;;;2585551;54;20027;31
2022/07/08 02:49:08;;;;;;;12.25;11.15;;;17.10;99.90;;;;;;2585711;54;19950;31
2022/07/08 02:51:43;;;;;;;12.60;11.40;;;17.10;99.90;;;;;;2585561;54;21017;31
2022/07/08 02:54:20;;;;;;;14.10;12.80;;;17.10;99.90;;;;;;2603992;46;21006;31
2022/07/08 02:56:58;;;;;;;14.90;13.52;;;17.10;99.90;;;;;;2585650;54;20803;31
2022/07/08 02:59:33;;;;;;;14.50;13.00;;;17.10;99.90;;;;;;2604334;46;20931;31
2022/07/08 03:02:08;;;;;;;12.63;11.43;;;17.10;99.90;;;;;;2585692;54;20896;31
2022/07/08 03:04:49;;;;;;;14.65;13.35;;;17.20;99.90;;;;;;2585339;54;20786;31
2022/07/08 03:07:24;;;;;;;13.63;12.23;;;17.10;99.90;;;;;;2585083;54;20894;31
2022/07/08 03:09:59;;;;;;;15.52;14.02;;;17.20;99.90;;;;;;2585693;54;20053;31
2022/07/08 03:12:40;;;;;;;13.02;11.85;;;17.10;99.90;;;;;;2584491;54;20909;31
2022/07/08 03:15:15;;;;;;;15.90;14.30;;;17.10;99.90;;;;;;2585657;54;20030;31
2022/07/08 03:17:52;;;;;;;14.83;13.57;;;17.10;99.90;;;;;;2584968;54;21005;31
2022/07/08 03:20:26;;;;;;;14.45;13.05;;;17.10;99.90;;;;;;2585472;54;20026;31
2022/07/08 03:23:01;;;;;;;12.75;11.55;;;17.10;99.90;;;;;;2584839;54;21166;31
2022/07/08 03:25:38;;;;;;;13.87;12.57;;;17.10;99.90;;;;;;2603633;46;21200;31
2022/07/08 03:28:15;;;;;;;15.30;13.82;;;17.20;99.90;;;;;;2585402;54;20895;31
2022/07/08 03:30:50;;;;;;;14.75;13.25;;;17.10;99.90;;;;;;2603708;46;21003;31
2022/07/08 03:33:24;;;;;;;15.50;14.10;;;17.20;99.90;;;;;;2585520;54;22510;31
2022/07/08 03:35:58;;;;;;;14.57;13.23;;;17.20;99.90;;;;;;2584499;54;20950;31
2022/07/08 03:38:35;;;;;;;13.63;12.43;;;17.20;99.90;;;;;;2603066;46;20831;31
2022/07/08 03:41:24;;;;;;;14.85;13.45;;;17.20;99.90;;;;;;2585347;54;20156;31
2022/07/08 03:44:02;;;;;;;14.88;13.38;;;17.20;99.90;;;;;;2585291;54;20085;31
2022/07/08 03:46:38;;;;;;;15.10;13.70;;;17.20;99.90;;;;;;2585412;54;20057;31
2022/07/08 03:49:15;;;;;;;14.97;12.83;;;17.10;99.90;;;;;;2585189;54;20030;31
2022/07/08 03:51:51;;;;;;;14.75;13.45;;;17.10;99.90;;;;;;2585315;54;20027;31
2022/07/08 03:54:33;;;;;;;14.25;12.90;;;17.10;99.90;;;;;;2585545;54;20930;31
2022/07/08 03:57:12;;;;;;;12.70;11.60;;;17.10;99.90;;;;;;2584846;54;20075;31
2022/07/08 03:59:50;;;;;;;12.60;11.43;;;17.10;99.90;;;;;;2603974;46;20030;31
2022/07/08 04:02:25;;;;;;;13.60;12.25;;;17.10;99.90;;;;;;2603857;46;20119;31
2022/07/08 04:04:59;;;;;;;13.05;11.95;;;17.10;99.90;;;;;;2702035;39;22412;31
2022/07/08 04:07:37;;;;;;;11.70;10.60;;;17.10;99.90;;;;;;2683057;39;20453;31
2022/07/08 04:10:13;;;;;;;12.25;10.80;;;17.00;99.90;;;;;;2683244;39;21479;31
2022/07/08 04:12:50;;;;;;;10.40;9.50;;;17.00;99.90;;;;;;2603681;47;20978;31
2022/07/08 04:18:05;;;;;;;9.87;9.07;;;17.00;99.90;;;;;;2585518;54;20968;31
2022/07/08 04:20:38;;;;;;;10.80;8.75;;;17.00;99.90;;;;;;2592872;47;20969;31
2022/07/08 04:23:15;;;;;;;9.45;8.55;;;17.00;99.90;;;;;;2603409;47;20126;31
2022/07/08 04:25:47;;;;;;;8.63;7.63;;;17.00;99.90;;;;;;2585452;54;20030;31
2022/07/08 04:28:22;;;;;;;9.05;7.80;;;16.90;99.90;;;;;;2584760;54;20089;31
2022/07/08 04:30:58;;;;;;;8.50;7.60;;;16.90;99.90;;;;;;2585232;54;20042;31
2022/07/08 04:33:35;;;;;;;8.25;7.50;;;17.00;99.90;;;;;;2585304;54;20916;31
2022/07/08 04:36:09;;;;;;;7.95;7.15;;;17.00;99.90;;;;;;2585259;54;21053;31
2022/07/08 04:38:44;;;;;;;7.60;6.80;;;16.90;99.90;;;;;;2603181;47;20116;31
2022/07/08 04:41:20;;;;;;;8.45;6.65;;;16.90;99.90;;;;;;2584295;54;21213;31
2022/07/08 04:43:53;;;;;;;6.47;5.85;;;17.00;99.90;;;;;;2585441;54;20246;31
2022/07/08 04:46:30;;;;;;;7.05;6.30;;;17.00;99.90;;;;;;2585567;54;20891;31
2022/07/08 04:49:07;;;;;;;6.63;6.03;;;17.00;99.90;;;;;;2585210;54;20872;31
2022/07/08 04:51:42;;;;;;;7.13;6.30;;;17.00;99.90;;;;;;2603700;47;20093;31
2022/07/08 04:54:18;;;;;;;8.32;7.03;;;17.00;99.90;;;;;;2585383;54;20036;31
2022/07/08 04:56:52;;;;;;;12.13;6.53;;;17.00;99.90;;;;;;2584129;54;21349;31
2022/07/08 04:59:29;;;;;;;8.57;6.47;;;17.00;99.90;;;;;;2585403;54;20037;31
2022/07/08 05:02:04;;;;;;;11.30;7.60;;;16.90;99.90;;;;;;2585911;54;20949;31
2022/07/08 05:04:41;;;;;;;9.65;7.28;;;17.00;99.90;;;;;;2585843;54;20293;31
2022/07/08 05:07:16;;;;;;;11.18;7.60;;;17.00;99.90;;;;;;2586139;54;22483;31
2022/07/08 05:09:51;;;;;;;9.32;7.40;;;17.00;99.90;;;;;;2586223;54;20030;31
2022/07/08 05:12:26;;;;;;;9.45;7.35;;;17.00;99.90;;;;;;2585769;54;20026;31
2022/07/08 05:15:00;;;;;;;10.77;7.35;;;17.00;99.90;;;;;;2584983;54;20759;31
2022/07/08 05:17:40;;;;;;;9.50;7.20;;;17.00;99.90;;;;;;2586084;54;20030;31
2022/07/08 05:20:19;;;;;;;11.93;7.55;;;17.10;99.90;;;;;;2595738;46;20936;31
2022/07/08 05:22:52;;;;;;;11.03;7.20;;;17.20;99.90;;;;;;2585165;54;20031;31
2022/07/08 05:25:29;;;;;;;9.55;7.18;;;17.20;99.90;;;;;;2584830;54;20026;31
2022/07/08 05:28:07;;;;;;;8.93;6.97;;;17.30;99.90;;;;;;2585715;54;20033;31
2022/07/08 05:30:42;;;;;;;10.80;7.60;;;17.30;99.90;;;;;;2585859;54;20926;31
2022/07/08 05:33:15;;;;;;;12.00;7.10;;;17.40;99.90;;;;;;2684089;39;22397;31
2022/07/08 05:35:55;;;;;;;12.18;7.32;;;17.50;99.90;;;;;;2604451;46;20254;31
2022/07/08 05:38:30;;;;;;;9.95;7.53;;;17.50;99.90;;;;;;2604219;46;20170;31
2022/07/08 05:41:07;;;;;;;8.80;6.90;;;17.60;99.90;;;;;;2585877;54;20906;31
2022/07/08 05:43:43;;;;;;;11.55;6.90;;;17.60;99.90;;;;;;2604245;46;20114;31
2022/07/08 05:46:17;;;;;;;9.70;7.40;;;17.60;99.90;;;;;;2585935;54;20089;31
2022/07/08 05:48:50;;;;;;;12.88;7.30;;;17.60;99.90;;;;;;2585803;54;20057;31
2022/07/08 05:51:30;;;;;;;8.95;5.80;;;17.70;99.90;;;;;;2585811;54;20711;31
2022/07/08 05:54:05;;;;;;;11.13;7.33;;;17.60;99.90;;;;;;2584883;54;20140;31
2022/07/08 05:56:45;;;;;;;11.00;7.20;;;17.60;99.90;;;;;;2584824;54;20889;31
2022/07/08 05:59:18;;;;;;;13.73;7.00;;;17.60;99.90;;;;;;2585747;54;20242;31
2022/07/08 06:01:55;;;;;;;10.90;6.95;;;17.60;99.90;;;;;;2584926;54;20022;31
2022/07/08 06:04:30;;;;;;;10.23;7.00;;;17.60;99.90;;;;;;2584698;54;20922;31
2022/07/08 06:07:08;;;;;;;19.20;8.20;;;17.60;99.90;;;;;;2585798;54;20312;31
2022/07/08 06:09:41;;;;;;;13.27;7.32;;;17.50;99.90;;;;;;2604365;46;22461;31
2022/07/08 06:12:20;;;;;;;12.13;8.23;;;17.50;99.90;;;;;;2603507;46;20971;31
2022/07/08 06:14:54;;;;;;;21.80;7.78;;;17.50;99.90;;;;;;2591171;46;21166;31
2022/07/08 06:17:31;;;;;;;14.48;6.53;;;17.60;99.90;;;;;;2585139;54;20077;31
2022/07/08 06:20:13;;;;;;;14.75;5.40;;;17.80;99.90;;;;;;2585576;54;20026;31
2022/07/08 06:22:56;;;;;;;18.25;6.85;;;17.90;99.90;;;;;;2604017;46;20805;31
2022/07/08 06:25:31;;;;;;;17.85;8.20;;;18.10;99.90;;;;;;2585446;54;20030;31
2022/07/08 06:28:08;;;;;;;15.30;8.63;;;18.20;99.90;;;;;;2585597;54;20030;31
2022/07/08 06:30:46;;;;;;;15.00;8.30;;;18.10;99.90;;;;;;2584565;54;20986;31
2022/07/08 06:33:20;;;;;;;15.95;7.50;;;18.10;99.90;;;;;;2585485;54;20280;31
2022/07/08 06:35:55;;;;;;;15.27;7.88;;;18.20;99.90;;;;;;2585667;54;20034;31
2022/07/08 06:38:34;;;;;;;14.50;8.43;;;18.30;99.90;;;;;;2585561;54;20793;31
2022/07/08 06:41:08;;;;;;;13.85;6.95;;;18.20;99.90;;;;;;2585602;54;20048;31
2022/07/08 06:43:41;;;;;;;18.70;6.95;;;18.20;99.90;;;;;;2604010;46;21044;31
2022/07/08 06:46:15;;;;;;;17.10;6.40;;;18.10;99.90;;;;;;2585665;54;20943;31
2022/07/08 06:48:52;;;;;;;17.77;5.78;;;18.10;99.90;;;;;;2603983;46;20797;31
2022/07/08 06:51:28;;;;;;;14.10;6.23;;;18.00;99.90;;;;;;2604361;46;20033;31
2022/07/08 06:56:57;;;;;;;14.50;5.72;;;17.90;99.90;;;;;;2585466;54;20038;31
2022/07/08 06:59:33;;;;;;;17.27;6.30;;;18.00;99.90;;;;;;2585465;54;20030;31
2022/07/08 07:02:28;;;;;;;17.40;6.82;;;17.90;99.90;;;;;;2683637;39;21091;31
2022/07/08 07:05:09;;;;;;;14.13;5.70;;;17.90;99.90;;;;;;2585561;54;20048;31
2022/07/08 07:07:44;;;;;;;16.48;6.10;;;17.90;99.90;;;;;;2585760;54;21072;31
2022/07/08 07:10:23;;;;;;;14.75;6.32;;;17.80;99.90;;;;;;2604063;46;20027;31
2022/07/08 07:13:00;;;;;;;14.63;6.00;;;17.80;99.90;;;;;;2585543;54;20786;31
2022/07/08 07:15:36;;;;;;;17.45;5.80;;;17.70;99.90;;;;;;2603852;46;20037;31
2022/07/08 07:18:11;;;;;;;12.88;4.88;;;17.70;99.90;;;;;;2585078;54;20089;31
2022/07/08 07:20:46;;;;;;;18.88;5.47;;;17.70;99.90;;;;;;2585274;54;20030;31
2022/07/08 07:23:22;;;;;;;18.15;6.18;;;17.70;99.90;;;;;;2585458;54;20800;31
2022/07/08 07:26:00;;;;;;;19.30;6.15;;;17.60;99.90;;;;;;2585336;54;21013;31
2022/07/08 07:28:34;;;;;;;19.38;6.38;;;17.50;99.90;;;;;;2596875;46;20034;31
2022/07/08 07:31:07;;;;;;;24.27;6.10;;;17.40;99.90;;;;;;2584451;54;20998;31
2022/07/08 07:33:42;;;;;;;22.75;6.75;;;17.40;99.90;;;;;;2585500;54;20044;31
2022/07/08 07:36:23;;;;;;;18.03;5.90;;;17.40;99.90;;;;;;2696602;39;22400;31
2022/07/08 07:39:00;;;;;;;16.50;5.82;;;17.60;99.90;;;;;;2591896;46;21157;31
2022/07/08 07:41:40;;;;;;;16.90;5.50;;;17.90;99.90;;;;;;2599713;46;20030;31
2022/07/08 07:44:16;;;;;;;16.70;4.45;;;18.10;99.90;;;;;;2594193;46;20904;31
2022/07/08 07:46:51;;;;;;;23.92;5.70;;;18.30;99.90;;;;;;2584390;54;20910;31
2022/07/08 07:49:25;;;;;;;15.20;4.60;;;18.30;99.90;;;;;;2584450;54;20920;31
2022/07/08 07:52:00;;;;;;;16.77;5.30;;;18.30;99.90;;;;;;2585554;54;20942;31
2022/07/08 07:54:35;;;;;;;18.10;5.10;;;18.30;99.90;;;;;;2585506;54;20989;31
2022/07/08 07:57:11;;;;;;;19.00;5.20;;;18.20;99.90;;;;;;2585490;54;20030;31
2022/07/08 07:59:46;;;;;;;12.40;4.20;;;18.20;99.90;;;;;;2584935;54;20335;31
2022/07/08 08:02:21;;;;;;;22.70;4.60;;;18.60;99.90;;;;;;2599865;46;20921;31
2022/07/08 08:04:55;;;;;;;18.52;5.13;;;19.20;99.90;;;;;;2585080;54;20239;31
2022/07/08 08:07:31;;;;;;;14.45;4.20;;;19.80;99.90;;;;;;2584325;54;21031;31
2022/07/08 08:10:08;;;;;;;11.60;4.65;;;20.00;99.90;;;;;;2682021;39;21386;31
2022/07/08 08:12:45;;;;;;;14.60;4.05;;;20.20;99.90;;;;;;2682422;39;21109;31
2022/07/08 08:15:22;;;;;;;19.27;4.73;;;20.50;99.90;;;;;;2583911;54;21011;31
2022/07/08 08:17:57;;;;;;;12.30;4.40;;;20.60;99.90;;;;;;2585340;54;20034;31
2022/07/08 08:20:32;;;;;;;14.75;4.45;;;20.70;99.90;;;;;;2603568;47;20997;31
2022/07/08 08:23:08;;;;;;;12.77;3.65;;;20.70;99.90;;;;;;2584926;54;21257;31
2022/07/08 08:25:57;;;;;;;11.43;3.92;;;20.90;99.90;;;;;;2585293;54;20679;31
2022/07/08 08:28:34;;;;;;;15.18;3.42;;;20.90;99.90;;;;;;2585235;54;20082;31
2022/07/08 08:31:10;;;;;;;11.50;3.10;;;20.90;99.90;;;;;;2585132;54;20033;31
2022/07/08 08:33:46;;;;;;;12.80;3.70;;;20.80;99.90;;;;;;2683093;39;21022;31
2022/07/08 08:36:23;;;;;;;13.63;3.80;;;20.70;99.90;;;;;;2586090;54;20027;31
2022/07/08 08:38:59;;;;;;;11.55;3.90;;;20.60;99.90;;;;;;2585837;54;20917;31
2022/07/08 08:41:35;;;;;;;10.90;3.50;;;20.50;99.90;;;;;;2585821;54;20677;31
2022/07/08 08:44:15;;;;;;;11.18;4.07;;;20.40;99.90;;;;;;2585892;54;20022;31
2022/07/08 08:46:50;;;;;;;8.77;3.50;;;20.40;99.90;;;;;;2584932;54;20986;31
2022/07/08 08:49:24;;;;;;;8.65;3.05;;;20.50;99.90;;;;;;2773518;31;22402;31
2022/07/08 08:51:58;;;;;;;9.82;2.85;;;20.50;99.90;;;;;;2585775;54;20862;31
2022/07/08 08:54:34;;;;;;;10.00;2.70;;;20.60;99.90;;;;;;2584943;54;20664;31
2022/07/08 08:57:11;;;;;;;11.07;3.38;;;20.70;99.90;;;;;;2586049;54;19938;31
2022/07/08 08:59:49;;;;;;;9.80;3.45;;;20.80;99.90;;;;;;2585960;54;20091;31
2022/07/08 09:02:22;;;;;;;6.20;2.75;;;20.70;99.90;;;;;;2585711;54;20093;31
2022/07/08 09:05:01;;;;;;;10.07;3.08;;;20.60;99.90;;;;;;2585922;54;20030;31
2022/07/08 09:07:36;;;;;;;10.10;2.90;;;20.80;99.90;;;;;;2593010;46;20050;31
2022/07/08 09:10:14;;;;;;;8.45;2.80;;;20.90;99.90;;;;;;2598691;46;20907;31
2022/07/08 09:13:07;;;;;;;10.05;2.90;;;21.10;99.90;;;;;;2584966;54;20034;31
2022/07/08 09:15:45;;;;;;;8.67;3.17;;;21.30;99.90;;;;;;2586007;54;20068;31
2022/07/08 09:18:20;;;;;;;9.13;2.78;;;21.60;99.90;;;;;;2584783;54;20234;31
2022/07/08 09:20:54;;;;;;;9.60;2.20;;;22.00;99.90;;;;;;2584852;54;20930;31
2022/07/08 09:23:30;;;;;;;8.70;2.70;;;22.30;99.90;;;;;;2585490;54;20988;31
2022/07/08 09:26:10;;;;;;;8.70;2.85;;;22.20;99.90;;;;;;2604405;46;20928;31
2022/07/08 09:28:49;;;;;;;7.90;2.20;;;22.30;99.90;;;;;;2585628;54;21450;31
2022/07/08 09:31:23;;;;;;;4.40;1.40;;;22.70;99.90;;;;;;2585860;54;21211;31
2022/07/08 09:34:05;;;;;;;5.87;1.90;;;23.00;99.90;;;;;;2603875;46;19954;31
2022/07/08 09:36:50;;;;;;;6.60;2.05;;;23.20;99.90;;;;;;2585717;54;20953;31
2022/07/08 09:39:28;;;;;;;6.10;1.70;;;23.40;99.90;;;;;;2585322;54;21169;31
2022/07/08 09:42:03;;;;;;;7.18;2.35;;;23.50;99.90;;;;;;2585748;54;20050;31
2022/07/08 09:44:38;;;;;;;7.07;1.95;;;23.50;99.90;;;;;;2604274;46;20030;31
2022/07/08 09:47:13;;;;;;;5.57;2.10;;;23.70;99.90;;;;;;2585741;54;20994;31
2022/07/08 09:49:54;;;;;;;5.30;1.60;;;24.10;99.90;;;;;;2683278;39;21633;31
2022/07/08 09:52:29;;;;;;;8.35;2.25;;;24.30;99.90;;;;;;2585534;54;20034;31
2022/07/08 09:55:04;;;;;;;7.68;2.08;;;24.60;99.90;;;;;;2585937;54;22522;31
2022/07/08 09:57:39;;;;;;;6.30;1.90;;;24.60;99.90;;;;;;2584687;54;20651;31
2022/07/08 10:00:17;;;;;;;4.03;1.70;;;24.20;99.90;;;;;;2584804;54;20969;31
2022/07/08 10:02:52;;;;;;;10.07;1.60;;;23.90;99.90;;;;;;2584621;54;20068;31
2022/07/08 10:05:32;;;;;;;4.50;1.67;;;23.60;99.90;;;;;;2603820;46;19934;31
2022/07/08 10:10:44;;;;;;;6.30;1.67;;;23.00;99.90;;;;;;2683824;39;21219;31
2022/07/08 10:13:26;;;;;;;6.20;1.70;;;23.00;99.90;;;;;;2603919;46;20109;31
2022/07/08 10:16:00;;;;;;;4.40;1.40;;;23.40;99.90;;;;;;2585543;54;20105;31
2022/07/08 10:18:38;;;;;;;3.70;1.20;;;23.50;99.90;;;;;;2702152;39;22341;31
2022/07/08 10:21:16;;;;;;;5.22;1.48;;;23.30;99.90;;;;;;2585502;54;20238;31
2022/07/08 10:23:52;;;;;;;7.90;1.50;;;23.10;99.90;;;;;;2585423;54;20855;31
2022/07/08 10:26:31;;;;;;;6.60;1.73;;;23.00;99.90;;;;;;2585678;54;20956;31
2022/07/08 10:29:07;;;;;;;5.45;1.40;;;23.10;99.90;;;;;;2585569;54;20030;31
2022/07/08 10:31:44;;;;;;;7.30;1.85;;;23.10;99.90;;;;;;2585723;54;21015;31
2022/07/08 10:34:21;;;;;;;7.70;2.40;;;23.20;99.90;;;;;;2683727;39;21039;31
2022/07/08 10:37:05;;;;;;;6.30;1.45;;;23.40;99.90;;;;;;2585554;54;21269;31
2022/07/08 10:39:41;;;;;;;6.13;1.73;;;23.20;99.90;;;;;;2584668;54;20027;31
2022/07/08 10:42:17;;;;;;;6.07;1.73;;;23.10;99.90;;;;;;2585725;54;20890;31
2022/07/08 10:44:54;;;;;;;6.47;1.40;;;23.20;99.90;;;;;;2585741;54;20031;31
2022/07/08 10:47:32;;;;;;;2.87;1.00;;;23.50;99.90;;;;;;2585639;54;20049;31
2022/07/08 10:50:08;;;;;;;5.03;1.50;;;23.70;99.90;;;;;;2683806;39;22463;31
2022/07/08 10:52:46;;;;;;;4.63;1.40;;;23.80;99.90;;;;;;2683096;39;21565;31
2022/07/08 10:55:21;;;;;;;6.65;1.63;;;23.50;99.90;;;;;;2585442;54;20787;31
2022/07/08 10:57:57;;;;;;;;;;;23.40;99.90;;;;;;2584501;54;21034;31
2022/07/08 11:00:35;;;;;;;4.70;1.53;;;23.40;99.90;;;;;;2584485;54;20833;31
2022/07/08 11:03:12;;;;;;;4.80;1.80;;;23.50;99.90;;;;;;2682970;39;20485;31
2022/07/08 11:05:58;;;;;;;6.00;1.35;;;23.80;99.90;;;;;;2683185;39;21547;31
2022/07/08 11:08:37;;;;;;;7.65;1.60;;;24.00;99.90;;;;;;2585702;54;21158;31
2022/07/08 11:11:12;;;;;;;5.60;1.33;;;23.90;99.90;;;;;;2585392;54;20026;31
2022/07/08 11:13:49;;;;;;;4.75;1.60;;;23.90;99.90;;;;;;2585389;54;20924;31
2022/07/08 11:16:24;;;;;;;6.28;1.30;;;24.10;99.90;;;;;;2585399;54;21557;31
2022/07/08 11:18:57;;;;;;;7.15;1.02;;;24.10;99.90;;;;;;2585583;54;20022;31
2022/07/08 11:21:32;;;;;;;5.50;1.40;;;24.30;99.90;;;;;;2585360;54;20772;31
2022/07/08 11:24:11;;;;;;;5.22;1.77;;;24.40;99.90;;;;;;2585300;54;20019;31
2022/07/08 11:26:47;;;;;;;5.40;1.10;;;24.40;99.90;;;;;;2603757;46;20773;31
2022/07/08 11:29:25;;;;;;;3.15;1.00;;;24.50;99.90;;;;;;2600862;46;20988;31
2022/07/08 11:31:59;;;;;;;5.35;1.17;;;24.60;99.90;;;;;;2603855;46;20458;31
2022/07/08 11:34:33;;;;;;;4.45;1.00;;;24.70;99.90;;;;;;2603465;46;22435;31
2022/07/08 11:37:07;;;;;;;4.75;0.80;;;24.80;99.90;;;;;;2585266;54;21051;31
2022/07/08 11:39:45;;;;;;;3.57;0.70;;;24.80;99.90;;;;;;2585584;54;20051;31
2022/07/08 11:42:24;;;;;;;9.30;1.00;;;24.70;99.90;;;;;;2585246;54;20589;31
2022/07/08 11:45:05;;;;;;;1.95;0.60;;;24.80;99.90;;;;;;2584332;54;21022;31
2022/07/08 11:47:49;;;;;;;3.08;0.45;;;24.80;99.90;;;;;;2584460;54;20600;31
2022/07/08 11:50:25;;;;;;;2.92;0.43;;;25.00;99.90;;;;;;2584444;54;20026;31
2022/07/08 11:53:03;;;;;;;1.58;0.40;;;24.90;99.90;;;;;;2585224;54;21444;31
2022/07/08 11:55:51;;;;;;;3.13;0.65;;;24.90;99.90;;;;;;2585663;54;21103;31
2022/07/08 11:58:26;;;;;;;2.60;0.45;;;24.90;99.90;;;;;;2585070;54;20061;31
2022/07/08 12:01:02;;;;;;;1.20;0.28;;;24.90;99.90;;;;;;2682632;39;20361;31
2022/07/08 12:03:38;;;;;;;1.58;0.40;;;24.90;99.90;;;;;;2683119;39;21046;31
2022/07/08 12:06:12;;;;;;;3.53;0.53;;;25.00;99.90;;;;;;2584886;54;21181;31
2022/07/08 12:08:47;;;;;;;5.13;0.60;;;25.10;99.90;;;;;;2584908;54;20056;31
2022/07/08 12:11:25;;;;;;;2.47;0.47;;;25.10;99.90;;;;;;2684015;39;21177;31
2022/07/08 12:13:58;;;;;;;4.60;0.65;;;25.30;99.90;;;;;;2585858;54;20230;31
2022/07/08 12:16:37;;;;;;;3.63;0.50;;;25.30;99.90;;;;;;2585724;54;20026;31
2022/07/08 12:19:31;;;;;;;2.70;0.40;;;25.30;99.90;;;;;;2604233;46;20328;31
2022/07/08 12:22:09;;;;;;;4.18;0.43;;;25.40;99.90;;;;;;2604449;46;20901;31
2022/07/08 12:24:42;;;;;;;7.75;0.60;;;25.50;99.60;;;;;;2586146;54;21030;31
2022/07/08 12:27:28;;;;;;;3.50;0.50;;;25.50;99.70;;;;;;2583597;54;21000;31
2022/07/08 12:30:08;;;;;;;4.20;0.63;;;25.40;99.90;;;;;;2583979;54;20026;31
2022/07/08 12:32:42;;;;;;;3.30;0.80;;;25.40;98.90;;;;;;2585590;54;20226;31
2022/07/08 12:35:18;;;;;;;4.43;0.87;;;25.30;99.20;;;;;;2584993;54;20425;31
2022/07/08 12:37:52;;;;;;;;;;;25.30;98.90;;;;;;2585111;54;20328;31
2022/07/08 12:40:29;;;;;;;4.57;0.63;;;25.40;99.20;;;;;;2585519;54;20788;31
2022/07/08 12:43:07;;;;;;;;;;;25.30;99.20;;;;;;2585128;54;20034;31
2022/07/08 12:45:45;;;;;;;3.70;1.00;;;25.10;98.70;;;;;;2592111;46;20045;31
2022/07/08 12:48:22;;;;;;;3.90;0.45;;;25.10;99.90;;;;;;2585668;54;20112;31
2022/07/08 12:50:59;;;;;;;1.80;0.50;;;25.10;98.90;;;;;;2592457;46;19948;31
2022/07/08 12:53:33;;;;;;;;;;;25.10;98.80;;;;;;2600247;46;20062;31
2022/07/08 12:56:10;;;;;;;1.85;0.60;;;24.90;98.90;;;;;;2585887;54;19935;31
2022/07/08 12:58:49;;;;;;;4.65;0.60;;;24.70;99.50;;;;;;2604225;46;20894;31
2022/07/08 13:01:24;;;;;;;2.00;0.60;;;24.60;99.40;;;;;;2604237;46;20808;31
2022/07/08 13:04:02;;;;;;;3.55;0.63;;;24.60;99.40;;;;;;2604193;46;20899;31
2022/07/08 13:06:37;;;;;;;2.40;0.50;;;24.50;98.90;;;;;;2683874;39;20509;31
2022/07/08 13:09:13;;;;;;;;;;;24.40;99.90;;;;;;2585432;54;20046;31
2022/07/08 13:11:48;;;;;;;3.00;0.50;;;24.40;98.80;;;;;;2604441;46;19934;31
2022/07/08 13:14:24;;;;;;;2.70;0.52;;;24.30;99.30;;;;;;2585632;54;21006;31
2022/07/08 13:17:02;;;;;;;2.80;0.53;;;24.20;99.60;;;;;;2584805;54;20890;31
2022/07/08 13:19:44;;;;;;;3.78;0.60;;;24.10;98.70;;;;;;2585592;54;20989;31
2022/07/08 13:22:18;;;;;;;5.40;1.00;;;23.90;99.30;;;;;;2585342;54;20030;31
2022/07/08 13:24:52;;;;;;;1.85;0.50;;;23.80;99.50;;;;;;2586034;54;20957;31
2022/07/08 13:27:27;;;;;;;5.20;0.60;;;23.60;99.60;;;;;;2584762;54;20027;31
2022/07/08 13:30:10;;;;;;;5.93;0.90;;;23.30;99.90;;;;;;2584398;54;20234;31
2022/07/08 13:32:43;;;;;;;2.85;0.65;;;23.10;99.90;;;;;;2585896;54;20057;31
2022/07/08 13:35:17;;;;;;;4.70;0.57;;;22.90;99.90;;;;;;2584670;54;20776;31
2022/07/08 13:37:51;;;;;;;3.10;0.65;;;22.70;99.90;;;;;;2585615;54;20891;31
2022/07/08 13:40:27;;;;;;;3.90;1.20;;;22.50;99.90;;;;;;2585833;54;20026;31
2022/07/08 13:43:06;;;;;;;5.90;1.55;;;22.40;99.90;;;;;;2585615;54;19989;31
2022/07/08 13:45:46;;;;;;;3.93;0.70;;;22.30;99.90;;;;;;2585756;54;20950;31
2022/07/08 13:48:21;;;;;;;8.07;1.13;;;22.30;99.90;;;;;;2585472;54;20788;31
2022/07/08 13:50:58;;;;;;;3.50;0.90;;;22.30;99.90;;;;;;2584758;54;21048;31